Time;durP1;ratioP1;P1;durP2;ratioP2;P2;SDS_P1;SDS_P2;PMS_P1;PMS_P2;Temp;Humidity;BMP_temperature;BMP_pressure;BME280_temperature;BME280_humidity;BME280_pressure;Samples;Min_cycle;Max_cycle;Signal;HPM_P1;HPM_P2
2023/07/12 00:01:41;;;;;;;18.50;14.17;;;;;22.80;96683.00;;;;5039665;28;20267;-91
2023/07/12 00:04:31;;;;;;;17.57;13.27;;;;;23.00;96672.00;;;;5046944;28;20216;-90
2023/07/12 00:07:21;;;;;;;15.43;13.83;;;;;22.70;96675.00;;;;5050239;28;20205;-91
2023/07/12 00:10:16;;;;;;;16.53;12.97;;;;;22.30;96660.00;;;;5048852;28;20228;-92
2023/07/12 00:13:06;;;;;;;19.63;13.97;;;;;22.20;96651.00;;;;5033467;28;20214;-90
2023/07/12 00:15:57;;;;;;;16.20;14.50;;;;;22.50;96634.00;;;;5026558;28;20285;-91
2023/07/12 00:18:46;;;;;;;14.77;13.27;;;;;22.40;96620.00;;;;5041332;28;20280;-91
2023/07/12 00:21:35;;;;;;;16.07;14.00;;;;;22.50;96619.00;;;;5046417;28;20283;-91
2023/07/12 00:24:25;;;;;;;15.60;14.00;;;;;22.30;96618.00;;;;5027196;28;20205;-91
2023/07/12 00:27:14;;;;;;;14.93;13.53;;;;;22.50;96610.00;;;;5043923;28;20760;-91
2023/07/12 00:30:14;;;;;;;17.27;14.83;;;;;22.30;96599.00;;;;5048849;28;20639;-92
2023/07/12 00:33:04;;;;;;;15.87;13.87;;;;;22.00;96607.00;;;;5039436;28;20249;-90
2023/07/12 00:35:53;;;;;;;16.80;13.63;;;;;22.20;96590.00;;;;5022996;28;20258;-90
2023/07/12 00:38:42;;;;;;;14.77;13.27;;;;;22.40;96590.00;;;;5030634;28;20266;-91
2023/07/12 00:41:58;;;;;;;14.10;12.87;;;;;22.20;96585.00;;;;5031453;28;20225;-92
2023/07/12 00:44:50;;;;;;;16.20;14.50;;;;;21.80;96596.00;;;;5037577;28;20205;-91
2023/07/12 00:47:42;;;;;;;14.80;13.20;;;;;21.70;96608.00;;;;5037354;28;20321;-91
2023/07/12 00:50:31;;;;;;;19.70;14.87;;;;;21.90;96609.00;;;;5035985;28;20679;-91
2023/07/12 00:53:24;;;;;;;15.97;14.10;;;;;22.00;96626.00;;;;5037977;28;20197;-91
2023/07/12 00:56:13;;;;;;;16.00;14.50;;;;;22.30;96629.00;;;;5041032;28;20212;-91
2023/07/12 00:59:05;;;;;;;17.20;14.77;;;;;22.50;96629.00;;;;5049076;28;20204;-90
2023/07/12 01:01:57;;;;;;;16.50;14.53;;;;;22.60;96631.00;;;;5040053;28;20286;-90
2023/07/12 01:04:50;;;;;;;14.83;13.43;;;;;22.40;96650.00;;;;5042866;28;20221;-91
2023/07/12 01:07:40;;;;;;;16.17;14.47;;;;;22.60;96652.00;;;;5038121;28;20216;-91
2023/07/12 01:10:29;;;;;;;14.53;13.07;;;;;22.70;96649.00;;;;5028241;28;20319;-91
2023/07/12 01:13:21;;;;;;;18.90;13.70;;;;;22.80;96657.00;;;;5029361;28;20202;-91
2023/07/12 01:16:11;;;;;;;19.50;14.37;;;;;22.80;96653.00;;;;5031461;28;20264;-90
2023/07/12 01:19:00;;;;;;;14.23;12.80;;;;;22.80;96643.00;;;;5045677;28;20208;-90
2023/07/12 01:21:53;;;;;;;15.03;13.50;;;;;22.70;96644.00;;;;5023234;28;20229;-91
2023/07/12 01:24:42;;;;;;;14.73;12.77;;;;;22.80;96652.00;;;;5039958;28;20558;-91
2023/07/12 01:27:32;;;;;;;16.53;12.17;;;;;22.80;96657.00;;;;5049836;28;20209;-91
2023/07/12 01:30:21;;;;;;;16.07;14.30;;;;;22.80;96682.00;;;;5033526;28;20229;-90
2023/07/12 01:33:10;;;;;;;15.87;13.37;;;;;22.90;96699.00;;;;5035365;28;20201;-91
2023/07/12 01:36:00;;;;;;;15.63;14.13;;;;;23.00;96719.00;;;;5045219;28;20196;-91
2023/07/12 01:38:52;;;;;;;14.87;13.27;;;;;22.40;96734.00;;;;5029460;28;20201;-90
2023/07/12 01:41:41;;;;;;;16.97;14.47;;;;;22.20;96736.00;;;;5042815;28;20710;-91
2023/07/12 01:44:30;;;;;;;15.87;14.03;;;;;22.20;96720.00;;;;5050412;28;20225;-91
2023/07/12 01:47:20;;;;;;;16.50;12.83;;;;;22.60;96707.00;;;;5037909;28;20216;-91
2023/07/12 01:50:10;;;;;;;16.10;14.43;;;;;22.60;96703.00;;;;5032732;28;20221;-91
2023/07/12 01:52:59;;;;;;;16.00;13.97;;;;;22.70;96695.00;;;;5036245;28;20197;-91
2023/07/12 01:55:50;;;;;;;13.97;12.57;;;;;22.80;96675.00;;;;5033608;28;20228;-91
2023/07/12 01:58:39;;;;;;;14.80;13.30;;;;;22.80;96667.00;;;;5043674;28;20208;-91
2023/07/12 02:01:28;;;;;;;16.83;14.37;;;;;22.50;96660.00;;;;5044288;28;20704;-90
2023/07/12 02:04:18;;;;;;;15.30;13.73;;;;;22.20;96658.00;;;;5038777;28;20229;-91
2023/07/12 02:07:07;;;;;;;19.30;14.60;;;;;22.60;96672.00;;;;5032653;28;20209;-91
2023/07/12 02:10:11;;;;;;;16.33;13.10;;;;;22.50;96674.00;;;;5027246;28;20221;-91
2023/07/12 02:13:02;;;;;;;17.33;15.27;;;;;22.60;96684.00;;;;5040530;28;20201;-90
2023/07/12 02:15:52;;;;;;;16.47;14.77;;;;;22.60;96694.00;;;;5052236;28;20196;-91
2023/07/12 02:18:41;;;;;;;15.00;13.30;;;;;22.40;96713.00;;;;5031954;28;20687;-90
2023/07/12 02:21:30;;;;;;;15.73;13.27;;;;;22.20;96721.00;;;;5048232;28;20221;-90
2023/07/12 02:24:19;;;;;;;16.77;14.97;;;;;22.30;96726.00;;;;5045841;28;20220;-91
2023/07/12 02:27:09;;;;;;;14.43;12.93;;;;;22.20;96724.00;;;;5025297;28;20593;-91
2023/07/12 02:29:59;;;;;;;15.50;13.90;;;;;22.40;96716.00;;;;5025735;28;20237;-91
2023/07/12 02:32:49;;;;;;;16.03;14.40;;;;;22.60;96721.00;;;;5048025;28;20241;-91
2023/07/12 02:35:41;;;;;;;16.67;14.80;;;;;22.00;96734.00;;;;5049858;28;20220;-92
2023/07/12 02:38:31;;;;;;;17.20;15.50;;;;;22.00;96734.00;;;;5038111;28;20410;-91
2023/07/12 02:41:20;;;;;;;15.17;13.77;;;;;22.50;96742.00;;;;5044358;28;20302;-91
2023/07/12 02:44:09;;;;;;;17.03;13.93;;;;;22.80;96730.00;;;;5033141;28;20236;-91
2023/07/12 02:47:00;;;;;;;14.73;12.40;;;;;23.00;96733.00;;;;5038008;28;20208;-91
2023/07/12 02:49:49;;;;;;;15.07;13.50;;;;;22.80;96735.00;;;;5043534;28;20224;-91
2023/07/12 02:52:39;;;;;;;14.17;12.70;;;;;22.70;96732.00;;;;5042703;28;20245;-91
2023/07/12 02:55:28;;;;;;;16.90;13.17;;;;;22.90;96735.00;;;;5035968;28;20315;-91
2023/07/12 02:58:18;;;;;;;15.40;13.87;;;;;23.10;96730.00;;;;5035580;28;20295;-91
2023/07/12 03:01:07;;;;;;;16.73;14.93;;;;;23.20;96726.00;;;;5041679;28;20268;-92
2023/07/12 03:03:59;;;;;;;16.47;14.33;;;;;23.20;96725.00;;;;5033131;28;20282;-92
2023/07/12 03:06:48;;;;;;;14.50;12.90;;;;;23.30;96720.00;;;;5044683;28;20583;-91
2023/07/12 03:09:38;;;;;;;15.10;13.60;;;;;23.20;96705.00;;;;5045815;28;20684;-91
2023/07/12 03:12:28;;;;;;;15.20;13.77;;;;;22.70;96699.00;;;;5045593;28;20218;-92
2023/07/12 03:15:17;;;;;;;17.50;13.83;;;;;22.40;96695.00;;;;5054040;28;20208;-91
2023/07/12 03:18:07;;;;;;;17.40;15.57;;;;;22.70;96710.00;;;;5046469;28;20223;-92
2023/07/12 03:21:01;;;;;;;16.23;14.70;;;;;23.00;96707.00;;;;5025299;28;20310;-91
2023/07/12 03:23:50;;;;;;;16.50;14.70;;;;;23.10;96713.00;;;;5031763;28;20217;-90
2023/07/12 03:26:39;;;;;;;16.13;14.00;;;;;23.10;96723.00;;;;5042272;28;20282;-91
2023/07/12 03:29:29;;;;;;;16.43;14.73;;;;;22.60;96742.00;;;;5051890;28;20257;-91
2023/07/12 03:32:19;;;;;;;15.30;13.80;;;;;23.10;96744.00;;;;5039123;28;20202;-91
2023/07/12 03:35:09;;;;;;;21.47;15.67;;;;;23.20;96736.00;;;;5038734;28;20260;-91
2023/07/12 03:37:59;;;;;;;15.37;13.77;;;;;23.30;96729.00;;;;5037422;28;20251;-91
2023/07/12 03:40:48;;;;;;;15.63;14.07;;;;;23.40;96739.00;;;;5045494;28;20246;-91
2023/07/12 03:43:38;;;;;;;16.30;14.57;;;;;23.40;96750.00;;;;5046289;28;20228;-91
2023/07/12 03:46:27;;;;;;;16.50;13.67;;;;;23.50;96769.00;;;;5034337;28;20611;-91
2023/07/12 03:49:16;;;;;;;17.10;15.17;;;;;23.30;96783.00;;;;5035779;28;20213;-91
2023/07/12 03:52:07;;;;;;;18.63;14.93;;;;;23.40;96780.00;;;;5030838;28;20282;-92
2023/07/12 03:54:57;;;;;;;15.77;14.17;;;;;23.60;96786.00;;;;5041077;28;20220;-91
2023/07/12 03:57:47;;;;;;;14.03;12.63;;;;;23.50;96786.00;;;;5029787;28;20201;-91
2023/07/12 04:00:36;;;;;;;15.47;13.87;;;;;23.50;96783.00;;;;5049355;28;20240;-90
2023/07/12 04:03:26;;;;;;;14.57;12.50;;;;;23.60;96778.00;;;;5046335;28;20286;-91
2023/07/12 04:06:15;;;;;;;15.00;12.77;;;;;23.60;96785.00;;;;5042935;28;20197;-91
2023/07/12 04:09:05;;;;;;;14.67;13.23;;;;;23.60;96793.00;;;;5036230;28;20710;-91
2023/07/12 04:11:55;;;;;;;16.60;14.90;;;;;23.60;96780.00;;;;5023116;28;20225;-91
2023/07/12 04:14:45;;;;;;;21.00;13.87;;;;;23.70;96783.00;;;;5032426;28;20200;-91
2023/07/12 04:17:35;;;;;;;15.37;12.57;;;;;23.70;96781.00;;;;5049098;28;20205;-91
2023/07/12 04:20:24;;;;;;;16.50;13.57;;;;;23.70;96780.00;;;;5037070;28;20232;-92
2023/07/12 04:23:13;;;;;;;15.43;13.40;;;;;23.70;96770.00;;;;5036772;28;20228;-92
2023/07/12 04:26:04;;;;;;;17.97;12.87;;;;;23.80;96776.00;;;;5038980;28;20213;-92
2023/07/12 04:28:55;;;;;;;15.60;14.10;;;;;23.70;96766.00;;;;5035673;28;20196;-92
2023/07/12 04:31:44;;;;;;;14.93;13.40;;;;;23.90;96746.00;;;;5052254;28;20318;-92
2023/07/12 04:34:33;;;;;;;14.67;13.07;;;;;23.90;96723.00;;;;5046422;28;20676;-93
2023/07/12 04:37:26;;;;;;;14.70;12.23;;;;;23.90;96721.00;;;;5037118;28;20209;-93
2023/07/12 04:40:16;;;;;;;15.97;11.33;;;;;24.00;96705.00;;;;5035734;28;20217;-92
2023/07/12 04:43:06;;;;;;;19.17;13.97;;;;;24.00;96684.00;;;;5045329;28;20217;-91
2023/07/12 04:45:57;;;;;;;15.13;12.27;;;;;24.00;96682.00;;;;5050149;28;20212;-92
2023/07/12 04:48:47;;;;;;;14.77;12.00;;;;;23.50;96669.00;;;;5041105;28;20201;-92
2023/07/12 04:51:37;;;;;;;14.77;13.17;;;;;23.00;96657.00;;;;5034521;28;20225;-91
2023/07/12 04:54:26;;;;;;;15.60;13.77;;;;;22.90;96644.00;;;;5036711;28;20205;-89
2023/07/12 04:57:15;;;;;;;16.20;13.83;;;;;23.20;96614.00;;;;5036711;28;20266;-92
2023/07/12 05:00:06;;;;;;;17.17;13.63;;;;;23.70;96607.00;;;;5038441;28;20232;-91
2023/07/12 05:02:56;;;;;;;15.23;13.60;;;;;23.80;96637.00;;;;5034102;28;20202;-92
2023/07/12 05:05:46;;;;;;;16.53;14.73;;;;;23.80;96658.00;;;;5033482;28;20746;-91
2023/07/12 05:08:35;;;;;;;15.97;13.77;;;;;23.10;96645.00;;;;5036074;28;20192;-92
2023/07/12 05:11:24;;;;;;;14.07;12.63;;;;;22.70;96663.00;;;;5036146;28;20592;-91
2023/07/12 05:14:14;;;;;;;15.90;13.50;;;;;23.00;96655.00;;;;5034223;28;20201;-90
2023/07/12 05:17:03;;;;;;;13.87;12.47;;;;;23.70;96638.00;;;;5039771;28;20215;-90
2023/07/12 05:19:54;;;;;;;16.77;13.63;;;;;24.00;96634.00;;;;5027790;28;20707;-90
2023/07/12 05:22:43;;;;;;;12.30;11.10;;;;;24.10;96642.00;;;;5036233;28;20258;-91
2023/07/12 05:25:32;;;;;;;16.00;11.33;;;;;24.00;96658.00;;;;5039481;28;20229;-91
2023/07/12 05:28:22;;;;;;;19.10;13.50;;;;;23.70;96646.00;;;;5044270;28;20208;-90
2023/07/12 05:31:13;;;;;;;15.00;13.37;;;;;24.00;96656.00;;;;5032574;28;20299;-91
2023/07/12 05:34:02;;;;;;;12.23;11.00;;;;;24.10;96661.00;;;;5030067;28;20206;-90
2023/07/12 05:36:53;;;;;;;14.10;12.30;;;;;24.30;96636.00;;;;5035008;28;20225;-90
2023/07/12 05:39:42;;;;;;;10.57;9.23;;;;;24.40;96634.00;;;;5029671;28;20205;-90
2023/07/12 05:42:31;;;;;;;12.70;9.53;;;;;24.50;96642.00;;;;5037441;28;20527;-89
2023/07/12 05:45:20;;;;;;;14.40;11.80;;;;;24.10;96639.00;;;;5034019;28;20609;-90
2023/07/12 05:48:09;;;;;;;14.50;12.37;;;;;24.50;96631.00;;;;5035799;28;20209;-91
2023/07/12 05:51:01;;;;;;;13.17;11.13;;;;;24.50;96630.00;;;;5034287;28;20225;-90
2023/07/12 05:53:51;;;;;;;12.37;10.63;;;;;24.10;96655.00;;;;5036135;28;20196;-90
2023/07/12 05:56:41;;;;;;;14.33;11.70;;;;;23.80;96663.00;;;;5037179;28;20201;-90
2023/07/12 05:59:30;;;;;;;16.37;12.23;;;;;23.70;96673.00;;;;5035201;28;20248;-90
2023/07/12 06:02:19;;;;;;;17.07;13.37;;;;;23.80;96675.00;;;;5030541;28;20216;-91
2023/07/12 06:05:10;;;;;;;13.77;12.37;;;;;24.10;96682.00;;;;5040925;28;20711;-91
2023/07/12 06:07:59;;;;;;;14.33;12.73;;;;;24.50;96686.00;;;;5026046;28;20216;-90
2023/07/12 06:10:50;;;;;;;12.77;11.43;;;;;24.60;96681.00;;;;5029644;28;20228;-91
2023/07/12 06:13:39;;;;;;;18.03;14.07;;;;;24.50;96681.00;;;;5031976;28;20247;-90
2023/07/12 06:16:28;;;;;;;17.57;14.07;;;;;24.70;96682.00;;;;5030802;28;20201;-91
2023/07/12 06:19:17;;;;;;;15.77;13.23;;;;;24.80;96687.00;;;;5030153;28;20672;-91
2023/07/12 06:22:07;;;;;;;14.30;12.00;;;;;24.90;96697.00;;;;5029988;28;20258;-92
2023/07/12 06:24:56;;;;;;;22.40;15.13;;;;;25.00;96693.00;;;;5028614;28;20617;-91
2023/07/12 06:27:47;;;;;;;20.57;16.33;;;;;25.20;96701.00;;;;5032861;28;20653;-91
2023/07/12 06:30:37;;;;;;;14.07;12.50;;;;;25.40;96703.00;;;;5024936;28;20233;-91
2023/07/12 06:33:27;;;;;;;16.13;12.97;;;;;25.50;96694.00;;;;5013891;28;20700;-91
2023/07/12 06:36:17;;;;;;;16.77;13.50;;;;;25.30;96696.00;;;;5017512;28;20204;-91
2023/07/12 06:39:06;;;;;;;15.27;13.67;;;;;24.80;96684.00;;;;5018332;28;20503;-91
2023/07/12 06:41:56;;;;;;;18.53;15.03;;;;;25.60;96681.00;;;;5014259;28;21904;-91
2023/07/12 06:44:46;;;;;;;17.07;14.53;;;;;25.90;96681.00;;;;5012912;28;20480;-91
2023/07/12 06:47:35;;;;;;;20.77;13.90;;;;;25.80;96688.00;;;;5009811;28;20738;-92
2023/07/12 06:50:25;;;;;;;16.03;13.13;;;;;25.60;96687.00;;;;5010559;28;20222;-91
2023/07/12 06:53:14;;;;;;;16.27;13.37;;;;;25.60;96680.00;;;;5010459;28;20225;-91
2023/07/12 06:56:03;;;;;;;17.90;12.57;;;;;25.70;96666.00;;;;5012598;28;20260;-91
2023/07/12 06:58:53;;;;;;;25.03;12.97;;;;;26.40;96648.00;;;;5020352;28;20620;-91
2023/07/12 07:01:43;;;;;;;13.80;11.60;;;;;26.80;96634.00;;;;5032115;28;20276;-91
2023/07/12 07:04:33;;;;;;;17.90;11.87;;;;;27.30;96637.00;;;;5026614;28;20233;-91
2023/07/12 07:07:22;;;;;;;11.20;9.57;;;;;27.30;96636.00;;;;5027450;28;20304;-91
2023/07/12 07:10:12;;;;;;;13.23;11.37;;;;;27.30;96637.00;;;;5026115;28;20243;-92
2023/07/12 07:13:02;;;;;;;14.47;10.07;;;;;27.10;96636.00;;;;5031624;28;20267;-92
2023/07/12 07:15:52;;;;;;;17.17;9.93;;;;;27.00;96633.00;;;;5033356;28;20259;-92
2023/07/12 07:18:42;;;;;;;19.10;10.73;;;;;26.90;96633.00;;;;5030893;28;20202;-91
2023/07/12 07:21:31;;;;;;;14.20;11.00;;;;;27.10;96631.00;;;;5046715;28;20272;-91
2023/07/12 07:24:21;;;;;;;15.80;10.97;;;;;27.40;96626.00;;;;5024721;28;20247;-91
2023/07/12 07:27:10;;;;;;;11.30;9.83;;;;;27.60;96627.00;;;;5038921;28;20302;-91
2023/07/12 07:29:59;;;;;;;13.43;12.03;;;;;28.00;96625.00;;;;5048341;28;20388;-91
2023/07/12 07:32:49;;;;;;;11.47;9.37;;;;;27.80;96619.00;;;;5029989;28;20354;-91
2023/07/12 07:35:40;;;;;;;11.33;8.90;;;;;27.40;96620.00;;;;5046820;28;20206;-92
2023/07/12 07:38:29;;;;;;;13.67;10.00;;;;;27.90;96605.00;;;;5028078;28;20277;-92
2023/07/12 07:41:19;;;;;;;12.77;8.93;;;;;28.10;96599.00;;;;5036207;28;20301;-91
2023/07/12 07:44:08;;;;;;;11.43;9.70;;;;;28.00;96587.00;;;;5049522;28;20214;-92
2023/07/12 07:46:57;;;;;;;14.00;9.23;;;;;28.50;96574.00;;;;5029268;28;20224;-91
2023/07/12 07:49:46;;;;;;;14.07;9.90;;;;;28.50;96571.00;;;;5035599;28;20208;-92
2023/07/12 07:52:37;;;;;;;8.83;7.93;;;;;28.50;96565.00;;;;5043943;28;20238;-91
2023/07/12 07:55:27;;;;;;;10.77;9.23;;;;;28.60;96560.00;;;;5035143;28;20205;-91
2023/07/12 07:58:16;;;;;;;13.40;8.33;;;;;28.60;96562.00;;;;5041039;28;20773;-92
2023/07/12 08:01:06;;;;;;;10.63;8.90;;;;;28.60;96566.00;;;;5023330;28;20225;-91
2023/07/12 08:03:56;;;;;;;10.30;9.18;;;;;28.50;96573.00;;;;5033821;28;20475;-91
2023/07/12 08:06:45;;;;;;;11.43;8.70;;;;;29.10;96574.00;;;;5034963;28;20419;-91
2023/07/12 08:09:37;;;;;;;8.87;7.73;;;;;29.90;96561.00;;;;5035218;28;20318;-91
2023/07/12 08:12:26;;;;;;;11.43;8.00;;;;;30.00;96556.00;;;;5034134;28;20223;-90
2023/07/12 08:15:15;;;;;;;10.63;8.87;;;;;30.60;96558.00;;;;5048915;28;20207;-91
2023/07/12 08:18:05;;;;;;;17.43;8.93;;;;;30.60;96550.00;;;;5052474;28;20207;-92
2023/07/12 08:20:55;;;;;;;13.63;7.57;;;;;31.00;96542.00;;;;5034914;28;20604;-91
2023/07/12 08:23:44;;;;;;;12.87;7.67;;;;;31.20;96548.00;;;;5045695;28;20912;-92
2023/07/12 08:26:36;;;;;;;10.87;7.93;;;;;31.30;96554.00;;;;5040202;28;20227;-92
2023/07/12 08:29:25;;;;;;;9.30;6.73;;;;;31.60;96561.00;;;;5032530;28;20595;-93
2023/07/12 08:32:15;;;;;;;9.63;6.37;;;;;31.70;96562.00;;;;5031107;28;20265;-91
2023/07/12 08:35:05;;;;;;;9.17;7.10;;;;;31.90;96561.00;;;;5034839;28;20212;-93
2023/07/12 08:37:55;;;;;;;8.50;6.93;;;;;31.70;96574.00;;;;5033789;28;20254;-91
2023/07/12 08:40:46;;;;;;;9.37;7.37;;;;;31.90;96580.00;;;;5034135;28;20234;-91
2023/07/12 08:43:37;;;;;;;12.80;7.77;;;;;31.90;96582.00;;;;5029511;28;20290;-91
2023/07/12 08:46:28;;;;;;;9.03;6.37;;;;;31.50;96590.00;;;;5026844;28;20570;-91
2023/07/12 08:49:18;;;;;;;8.60;6.82;;;;;32.00;96583.00;;;;5029380;28;20226;-91
2023/07/12 08:52:16;;;;;;;6.82;6.18;;;;;32.00;96585.00;;;;5025510;28;20573;-91
2023/07/12 08:55:09;;;;;;;7.78;6.95;;;;;32.70;96590.00;;;;5024332;28;20267;-91
2023/07/12 08:58:03;;;;;;;12.57;6.40;;;;;33.20;96597.00;;;;5032670;28;20316;-91
2023/07/12 09:01:02;;;;;;;7.80;7.07;;;;;33.50;96596.00;;;;5035750;28;20720;-91
2023/07/12 09:03:52;;;;;;;8.88;7.80;;;;;33.90;96600.00;;;;5028797;28;20224;-91
2023/07/12 09:06:42;;;;;;;9.13;7.65;;;;;34.20;96588.00;;;;5037565;28;20629;-91
2023/07/12 09:09:37;;;;;;;13.57;8.00;;;;;34.50;96592.00;;;;5037126;28;20207;-91
2023/07/12 09:12:30;;;;;;;9.35;8.20;;;;;34.40;96588.00;;;;5037569;28;20215;-91
2023/07/12 09:15:23;;;;;;;9.93;8.20;;;;;34.30;96580.00;;;;5016660;28;20200;-91
2023/07/12 09:18:28;;;;;;;10.20;8.15;;;;;34.10;96588.00;;;;5029136;28;20887;-89
2023/07/12 09:21:25;;;;;;;8.27;7.22;;;;;34.20;96585.00;;;;5033640;28;20224;-91
2023/07/12 09:24:23;;;;;;;8.43;7.60;;;;;34.60;96591.00;;;;5015129;28;20198;-90
2023/07/12 09:27:16;;;;;;;10.13;7.05;;;;;34.60;96586.00;;;;5034371;28;20204;-91
2023/07/12 09:30:07;;;;;;;10.40;7.78;;;;;34.90;96592.00;;;;5039055;28;20227;-91
2023/07/12 09:32:58;;;;;;;10.15;8.00;;;;;34.90;96593.00;;;;5032453;28;20216;-91
2023/07/12 09:35:49;;;;;;;9.82;7.13;;;;;35.10;96601.00;;;;5041354;28;20200;-90
2023/07/12 09:38:39;;;;;;;7.72;6.43;;;;;35.30;96616.00;;;;5034065;28;20205;-91
2023/07/12 09:41:29;;;;;;;9.10;6.07;;;;;35.00;96621.00;;;;5037503;28;20710;-92
2023/07/12 09:44:18;;;;;;;6.93;6.03;;;;;35.30;96628.00;;;;5049355;28;20326;-92
2023/07/12 09:47:11;;;;;;;7.10;5.85;;;;;35.30;96623.00;;;;5042230;28;20200;-91
2023/07/12 09:50:06;;;;;;;8.30;5.97;;;;;35.90;96625.00;;;;5032603;28;20237;-90
2023/07/12 09:53:01;;;;;;;8.52;5.47;;;;;35.10;96618.00;;;;5024096;28;20205;-91
2023/07/12 09:55:55;;;;;;;7.20;5.45;;;;;34.40;96638.00;;;;5023053;28;20315;-89
2023/07/12 09:58:50;;;;;;;8.63;5.05;;;;;33.10;96647.00;;;;5038887;28;20259;-90
2023/07/12 10:01:44;;;;;;;5.15;4.05;;;;;32.90;96647.00;;;;5030552;28;20225;-93
2023/07/12 10:04:40;;;;;;;5.15;4.65;;;;;32.80;96665.00;;;;5033302;28;20203;-91
2023/07/12 10:07:45;;;;;;;5.68;3.30;;;;;31.80;96661.00;;;;5036894;28;20208;-86
2023/07/12 10:10:39;;;;;;;4.05;3.08;;;;;32.90;96660.00;;;;5028497;28;20228;-90
2023/07/12 10:13:37;;;;;;;5.60;3.17;;;;;33.00;96652.00;;;;5028886;28;20208;-90
2023/07/12 10:16:28;;;;;;;4.88;2.92;;;;;32.80;96643.00;;;;5027846;28;20689;-89
2023/07/12 10:19:20;;;;;;;7.10;3.97;;;;;32.90;96640.00;;;;5031064;28;20276;-89
2023/07/12 10:22:19;;;;;;;6.88;3.10;;;;;33.10;96635.00;;;;5031001;28;20753;-88
2023/07/12 10:25:17;;;;;;;3.30;2.92;;;;;33.30;96647.00;;;;5031872;28;20195;-90
2023/07/12 10:28:19;;;;;;;3.55;3.20;;;;;34.20;96629.00;;;;5040860;28;20198;-91
2023/07/12 10:31:16;;;;;;;3.42;2.80;;;;;35.00;96628.00;;;;5030217;28;20225;-91
2023/07/12 10:34:22;;;;;;;2.70;2.47;;;;;35.40;96638.00;;;;5024405;28;20212;-91
2023/07/12 10:37:15;;;;;;;3.45;2.92;;;;;35.60;96635.00;;;;5029992;28;20319;-92
2023/07/12 10:40:07;;;;;;;4.28;2.80;;;;;35.60;96633.00;;;;5035403;28;20290;-92
2023/07/12 10:42:58;;;;;;;2.90;2.67;;;;;35.80;96630.00;;;;5038218;28;20632;-92
2023/07/12 10:45:51;;;;;;;4.47;2.90;;;;;35.90;96635.00;;;;5051061;28;20223;-90
2023/07/12 10:48:43;;;;;;;3.08;2.83;;;;;35.90;96625.00;;;;5040712;28;20201;-92
2023/07/12 10:51:38;;;;;;;4.05;2.85;;;;;36.20;96624.00;;;;5039604;28;20221;-91
2023/07/12 10:54:51;;;;;;;4.30;3.28;;;;;35.60;96633.00;;;;5031648;28;20703;-92
2023/07/12 10:57:44;;;;;;;3.92;3.42;;;;;35.60;96629.00;;;;5038091;28;20220;-91
2023/07/12 11:00:51;;;;;;;5.43;3.38;;;;;34.70;96619.00;;;;5028810;28;20229;-92
2023/07/12 11:03:45;;;;;;;3.42;3.13;;;;;33.80;96617.00;;;;5045389;28;20208;-89
2023/07/12 11:06:39;;;;;;;3.03;2.63;;;;;33.10;96618.00;;;;5036380;28;20213;-88
2023/07/12 11:09:43;;;;;;;4.82;2.90;;;;;33.20;96614.00;;;;5033402;28;20254;-90
2023/07/12 11:12:39;;;;;;;5.05;3.03;;;;;33.40;96596.00;;;;5029182;28;20217;-89
2023/07/12 11:15:28;;;;;;;3.85;3.05;;;;;33.90;96568.00;;;;5037279;28;20254;-88
2023/07/12 11:18:30;;;;;;;2.88;2.50;;;;;34.30;96550.00;;;;5036901;28;20239;-90
2023/07/12 11:21:28;;;;;;;5.15;3.08;;;;;34.50;96550.00;;;;5037118;28;20616;-90
2023/07/12 11:24:31;;;;;;;3.97;2.95;;;;;34.20;96563.00;;;;5031065;28;20210;-91
2023/07/12 11:27:41;;;;;;;5.75;2.97;;;;;34.50;96571.00;;;;5047294;28;20212;-90
2023/07/12 11:30:43;;;;;;;4.00;3.40;;;;;34.20;96571.00;;;;5037818;28;20228;-90
2023/07/12 11:33:36;;;;;;;4.72;3.10;;;;;34.90;96577.00;;;;5051864;28;20210;-91
2023/07/12 11:36:28;;;;;;;3.22;2.95;;;;;34.40;96580.00;;;;5033818;28;20209;-89
2023/07/12 11:39:22;;;;;;;3.63;2.20;;;;;33.00;96572.00;;;;5036044;28;20270;-85
2023/07/12 11:42:24;;;;;;;3.85;2.83;;;;;32.40;96575.00;;;;5046183;28;20677;-86
2023/07/12 11:45:15;;;;;;;2.75;2.50;;;;;32.80;96568.00;;;;5033317;28;20212;-89
2023/07/12 11:48:08;;;;;;;4.80;2.90;;;;;33.10;96560.00;;;;5031922;28;20207;-89
2023/07/12 11:51:01;;;;;;;4.55;3.00;;;;;33.10;96562.00;;;;5036239;28;20247;-88
2023/07/12 11:53:56;;;;;;;3.63;2.50;;;;;32.10;96554.00;;;;5024437;28;20283;-90
2023/07/12 11:56:46;;;;;;;4.60;2.67;;;;;32.10;96549.00;;;;5037882;28;20283;-88
2023/07/12 11:59:39;;;;;;;4.10;3.17;;;;;32.10;96544.00;;;;5052843;28;20645;-88
2023/07/12 12:02:29;;;;;;;3.70;2.65;;;;;32.40;96537.00;;;;5034200;28;20200;-88
2023/07/12 12:05:25;;;;;;;2.67;2.47;;;;;32.40;96528.00;;;;5030994;28;20222;-88
2023/07/12 12:08:19;;;;;;;7.97;4.05;;;;;32.60;96522.00;;;;5042606;28;20207;-89
2023/07/12 12:11:10;;;;;;;3.80;2.70;;;;;32.70;96528.00;;;;5020621;28;20728;-90
2023/07/12 12:14:00;;;;;;;5.07;2.70;;;;;32.40;96522.00;;;;5023077;28;20211;-89
2023/07/12 12:16:52;;;;;;;3.45;3.15;;;;;32.60;96515.00;;;;5037121;28;20202;-88
2023/07/12 12:19:41;;;;;;;4.18;3.10;;;;;32.30;96522.00;;;;5023972;28;20227;-89
2023/07/12 12:22:30;;;;;;;3.50;2.75;;;;;32.70;96505.00;;;;5041804;28;20280;-89
2023/07/12 12:25:24;;;;;;;4.78;3.17;;;;;33.40;96489.00;;;;5036895;28;20207;-88
2023/07/12 12:28:24;;;;;;;3.60;3.13;;;;;33.70;96473.00;;;;5031381;28;20698;-89
2023/07/12 12:31:19;;;;;;;5.85;3.80;;;;;33.70;96469.00;;;;5022269;28;20228;-89
2023/07/12 12:34:15;;;;;;;7.00;4.07;;;;;33.60;96449.00;;;;5023211;28;20251;-90
2023/07/12 12:37:11;;;;;;;6.20;3.42;;;;;33.50;96468.00;;;;5023347;28;20274;-90
2023/07/12 12:40:02;;;;;;;5.28;3.63;;;;;33.30;96486.00;;;;5032044;28;20749;-90
2023/07/12 12:43:01;;;;;;;4.65;3.40;;;;;33.20;96499.00;;;;5024134;28;20691;-89
2023/07/12 12:45:51;;;;;;;4.53;3.75;;;;;33.10;96495.00;;;;5034326;28;20308;-91
2023/07/12 12:48:40;;;;;;;5.97;3.03;;;;;33.00;96508.00;;;;5038022;28;20297;-89
2023/07/12 12:51:44;;;;;;;3.63;3.20;;;;;33.10;96525.00;;;;5046303;28;20694;-89
2023/07/12 12:54:36;;;;;;;6.72;3.63;;;;;33.10;96520.00;;;;5029836;28;20211;-89
2023/07/12 12:57:27;;;;;;;5.43;3.83;;;;;33.10;96520.00;;;;5053875;28;20219;-90
2023/07/12 13:00:23;;;;;;;5.15;3.55;;;;;33.10;96518.00;;;;5047152;28;20239;-90
2023/07/12 13:03:15;;;;;;;4.10;2.63;;;;;33.00;96527.00;;;;5036078;28;20578;-90
2023/07/12 13:06:09;;;;;;;6.72;3.40;;;;;33.20;96540.00;;;;5023754;28;20208;-89
2023/07/12 13:08:59;;;;;;;5.65;3.53;;;;;32.70;96538.00;;;;5028811;28;20201;-88
2023/07/12 13:11:51;;;;;;;5.03;3.00;;;;;31.80;96525.00;;;;5027339;28;20238;-87
2023/07/12 13:14:43;;;;;;;4.45;3.20;;;;;31.80;96523.00;;;;5040974;28;20208;-89
2023/07/12 13:17:36;;;;;;;3.47;3.17;;;;;32.60;96531.00;;;;5048652;28;20390;-88
2023/07/12 13:20:47;;;;;;;7.20;4.15;;;;;33.60;96531.00;;;;5047769;28;20241;-88
2023/07/12 13:23:36;;;;;;;4.43;2.85;;;;;34.00;96519.00;;;;5031627;28;20203;-89
2023/07/12 13:26:26;;;;;;;5.43;3.75;;;;;34.30;96524.00;;;;5039941;28;20352;-88
2023/07/12 13:29:20;;;;;;;13.35;4.00;;;;;33.90;96534.00;;;;5037761;28;20295;-89
2023/07/12 13:32:12;;;;;;;9.88;4.25;;;;;34.00;96546.00;;;;5031953;28;20270;-89
2023/07/12 13:35:02;;;;;;;4.88;4.47;;;;;33.50;96552.00;;;;5032323;28;20287;-88
2023/07/12 13:37:54;;;;;;;4.15;3.47;;;;;33.30;96551.00;;;;5032719;28;20662;-88
2023/07/12 13:41:03;;;;;;;6.20;4.20;;;;;34.30;96546.00;;;;5033021;28;20588;-88
2023/07/12 13:43:56;;;;;;;5.78;3.90;;;;;34.80;96548.00;;;;5029104;28;20383;-89
2023/07/12 13:46:48;;;;;;;4.30;3.80;;;;;35.30;96539.00;;;;5028334;28;20226;-88
2023/07/12 13:49:37;;;;;;;4.05;3.38;;;;;35.90;96539.00;;;;5033148;28;20204;-89
2023/07/12 13:52:31;;;;;;;6.40;3.40;;;;;36.20;96525.00;;;;5044695;28;20204;-89
2023/07/12 13:55:23;;;;;;;9.27;3.85;;;;;36.90;96512.00;;;;5037530;28;20215;-90
2023/07/12 13:58:12;;;;;;;3.83;3.53;;;;;37.70;96507.00;;;;5026228;28;20255;-89
2023/07/12 14:01:02;;;;;;;6.45;4.43;;;;;37.70;96517.00;;;;5025639;28;20318;-90
2023/07/12 14:03:54;;;;;;;6.65;4.20;;;;;37.40;96523.00;;;;5019794;28;20687;-90
2023/07/12 14:06:45;;;;;;;5.72;3.80;;;;;36.70;96519.00;;;;5025715;28;20213;-89